sensor_id;sensor_type;location;lat;lon;timestamp;P1;durP1;ratioP1;P2;durP2;ratioP2
6133;SDS011;3098;42.678;23.364;2023-03-31T00:02:02;14.73;;;6.10;;
6133;SDS011;3098;42.678;23.364;2023-03-31T00:04:38;15.50;;;5.57;;
6133;SDS011;3098;42.678;23.364;2023-03-31T00:07:12;14.45;;;5.68;;
6133;SDS011;3098;42.678;23.364;2023-03-31T00:09:40;19.83;;;5.28;;
6133;SDS011;3098;42.678;23.364;2023-03-31T00:12:10;14.38;;;6.22;;
6133;SDS011;3098;42.678;23.364;2023-03-31T00:14:37;12.48;;;4.70;;
6133;SDS011;3098;42.678;23.364;2023-03-31T00:17:04;14.70;;;6.03;;
6133;SDS011;3098;42.678;23.364;2023-03-31T00:19:31;13.05;;;6.00;;
6133;SDS011;3098;42.678;23.364;2023-03-31T00:21:58;20.02;;;7.05;;
6133;SDS011;3098;42.678;23.364;2023-03-31T00:24:28;15.77;;;5.80;;
6133;SDS011;3098;42.678;23.364;2023-03-31T00:26:57;15.45;;;6.07;;
6133;SDS011;3098;42.678;23.364;2023-03-31T00:29:24;18.65;;;5.20;;
6133;SDS011;3098;42.678;23.364;2023-03-31T00:31:53;13.27;;;5.70;;
6133;SDS011;3098;42.678;23.364;2023-03-31T00:34:21;13.02;;;5.70;;
6133;SDS011;3098;42.678;23.364;2023-03-31T00:36:49;13.13;;;5.68;;
6133;SDS011;3098;42.678;23.364;2023-03-31T00:39:20;12.02;;;5.20;;
6133;SDS011;3098;42.678;23.364;2023-03-31T00:41:50;14.40;;;5.03;;
6133;SDS011;3098;42.678;23.364;2023-03-31T00:44:18;14.50;;;5.80;;
6133;SDS011;3098;42.678;23.364;2023-03-31T00:46:50;13.55;;;5.63;;
6133;SDS011;3098;42.678;23.364;2023-03-31T00:49:20;13.13;;;5.47;;
6133;SDS011;3098;42.678;23.364;2023-03-31T00:51:53;9.80;;;5.05;;
6133;SDS011;3098;42.678;23.364;2023-03-31T00:54:22;14.60;;;4.82;;
6133;SDS011;3098;42.678;23.364;2023-03-31T00:56:54;12.98;;;5.40;;
6133;SDS011;3098;42.678;23.364;2023-03-31T00:59:27;11.95;;;4.53;;
6133;SDS011;3098;42.678;23.364;2023-03-31T01:01:57;12.23;;;5.25;;
6133;SDS011;3098;42.678;23.364;2023-03-31T01:04:27;13.45;;;5.55;;
6133;SDS011;3098;42.678;23.364;2023-03-31T01:06:58;10.02;;;4.68;;
6133;SDS011;3098;42.678;23.364;2023-03-31T01:09:29;9.07;;;5.00;;
6133;SDS011;3098;42.678;23.364;2023-03-31T01:12:00;12.40;;;4.57;;
6133;SDS011;3098;42.678;23.364;2023-03-31T01:14:31;12.00;;;4.55;;
6133;SDS011;3098;42.678;23.364;2023-03-31T01:16:59;10.23;;;4.28;;
6133;SDS011;3098;42.678;23.364;2023-03-31T01:19:28;16.65;;;6.15;;
6133;SDS011;3098;42.678;23.364;2023-03-31T01:22:09;19.40;;;5.85;;
6133;SDS011;3098;42.678;23.364;2023-03-31T01:28:18;14.35;;;5.47;;
6133;SDS011;3098;42.678;23.364;2023-03-31T01:37:17;10.77;;;4.63;;
6133;SDS011;3098;42.678;23.364;2023-03-31T01:43:13;13.50;;;6.05;;
6133;SDS011;3098;42.678;23.364;2023-03-31T01:45:48;36.28;;;14.13;;
6133;SDS011;3098;42.678;23.364;2023-03-31T01:48:21;47.28;;;23.80;;
6133;SDS011;3098;42.678;23.364;2023-03-31T01:51:00;75.57;;;32.05;;
6133;SDS011;3098;42.678;23.364;2023-03-31T01:53:32;83.85;;;33.30;;
6133;SDS011;3098;42.678;23.364;2023-03-31T01:56:11;80.45;;;30.90;;
6133;SDS011;3098;42.678;23.364;2023-03-31T01:58:41;75.35;;;31.33;;
6133;SDS011;3098;42.678;23.364;2023-03-31T02:01:17;73.95;;;31.65;;
6133;SDS011;3098;42.678;23.364;2023-03-31T02:03:52;62.90;;;26.13;;
6133;SDS011;3098;42.678;23.364;2023-03-31T02:06:22;56.97;;;21.70;;
6133;SDS011;3098;42.678;23.364;2023-03-31T02:08:56;35.47;;;17.98;;
6133;SDS011;3098;42.678;23.364;2023-03-31T02:11:28;43.72;;;16.27;;
6133;SDS011;3098;42.678;23.364;2023-03-31T02:13:59;49.20;;;19.15;;
6133;SDS011;3098;42.678;23.364;2023-03-31T02:16:28;40.47;;;16.33;;
6133;SDS011;3098;42.678;23.364;2023-03-31T02:18:58;29.65;;;13.70;;
6133;SDS011;3098;42.678;23.364;2023-03-31T02:21:30;36.35;;;15.32;;
6133;SDS011;3098;42.678;23.364;2023-03-31T02:24:00;36.60;;;14.27;;
6133;SDS011;3098;42.678;23.364;2023-03-31T02:26:33;47.67;;;19.38;;
6133;SDS011;3098;42.678;23.364;2023-03-31T02:29:04;34.35;;;15.02;;
6133;SDS011;3098;42.678;23.364;2023-03-31T02:31:33;43.47;;;13.55;;
6133;SDS011;3098;42.678;23.364;2023-03-31T02:34:06;35.00;;;13.25;;
6133;SDS011;3098;42.678;23.364;2023-03-31T02:36:34;34.58;;;12.88;;
6133;SDS011;3098;42.678;23.364;2023-03-31T02:39:02;29.83;;;12.93;;
6133;SDS011;3098;42.678;23.364;2023-03-31T02:41:34;21.90;;;9.57;;
6133;SDS011;3098;42.678;23.364;2023-03-31T02:44:01;21.70;;;8.30;;
6133;SDS011;3098;42.678;23.364;2023-03-31T02:46:28;18.92;;;7.47;;
6133;SDS011;3098;42.678;23.364;2023-03-31T02:48:57;16.23;;;7.28;;
6133;SDS011;3098;42.678;23.364;2023-03-31T02:54:50;14.90;;;6.43;;
6133;SDS011;3098;42.678;23.364;2023-03-31T03:00:32;13.68;;;5.57;;
6133;SDS011;3098;42.678;23.364;2023-03-31T03:03:19;12.32;;;5.65;;
6133;SDS011;3098;42.678;23.364;2023-03-31T03:05:58;11.88;;;5.43;;
6133;SDS011;3098;42.678;23.364;2023-03-31T03:08:33;12.80;;;5.43;;
6133;SDS011;3098;42.678;23.364;2023-03-31T03:11:10;14.80;;;5.32;;
6133;SDS011;3098;42.678;23.364;2023-03-31T03:13:46;11.70;;;5.30;;
6133;SDS011;3098;42.678;23.364;2023-03-31T03:16:18;9.35;;;4.78;;
6133;SDS011;3098;42.678;23.364;2023-03-31T03:18:53;12.10;;;5.20;;
6133;SDS011;3098;42.678;23.364;2023-03-31T03:21:22;19.50;;;6.57;;
6133;SDS011;3098;42.678;23.364;2023-03-31T03:23:49;11.35;;;5.38;;
6133;SDS011;3098;42.678;23.364;2023-03-31T03:26:17;11.52;;;5.75;;
6133;SDS011;3098;42.678;23.364;2023-03-31T03:28:47;16.05;;;6.00;;
6133;SDS011;3098;42.678;23.364;2023-03-31T03:31:14;18.20;;;6.72;;
6133;SDS011;3098;42.678;23.364;2023-03-31T03:33:42;16.30;;;5.75;;
6133;SDS011;3098;42.678;23.364;2023-03-31T03:36:09;13.95;;;5.65;;
6133;SDS011;3098;42.678;23.364;2023-03-31T03:38:37;11.77;;;5.25;;
6133;SDS011;3098;42.678;23.364;2023-03-31T03:41:05;10.75;;;5.20;;
6133;SDS011;3098;42.678;23.364;2023-03-31T03:43:32;10.55;;;4.95;;
6133;SDS011;3098;42.678;23.364;2023-03-31T03:46:01;16.17;;;4.88;;
6133;SDS011;3098;42.678;23.364;2023-03-31T03:48:29;13.48;;;4.85;;
6133;SDS011;3098;42.678;23.364;2023-03-31T03:50:58;11.38;;;4.97;;
6133;SDS011;3098;42.678;23.364;2023-03-31T03:53:25;10.98;;;5.35;;
6133;SDS011;3098;42.678;23.364;2023-03-31T03:55:52;13.68;;;4.75;;
6133;SDS011;3098;42.678;23.364;2023-03-31T03:58:19;12.15;;;5.03;;
6133;SDS011;3098;42.678;23.364;2023-03-31T04:00:47;13.10;;;6.85;;
6133;SDS011;3098;42.678;23.364;2023-03-31T04:03:15;17.33;;;7.95;;
6133;SDS011;3098;42.678;23.364;2023-03-31T04:05:42;14.65;;;6.90;;
6133;SDS011;3098;42.678;23.364;2023-03-31T04:08:09;18.27;;;7.50;;
6133;SDS011;3098;42.678;23.364;2023-03-31T04:10:37;13.55;;;7.00;;
6133;SDS011;3098;42.678;23.364;2023-03-31T04:13:08;17.38;;;7.50;;
6133;SDS011;3098;42.678;23.364;2023-03-31T04:15:35;12.48;;;5.90;;
6133;SDS011;3098;42.678;23.364;2023-03-31T04:18:02;14.48;;;6.25;;
6133;SDS011;3098;42.678;23.364;2023-03-31T04:20:31;9.90;;;5.32;;
6133;SDS011;3098;42.678;23.364;2023-03-31T04:22:58;15.10;;;5.53;;
6133;SDS011;3098;42.678;23.364;2023-03-31T04:25:26;13.45;;;6.03;;
6133;SDS011;3098;42.678;23.364;2023-03-31T04:27:54;12.07;;;5.38;;
6133;SDS011;3098;42.678;23.364;2023-03-31T04:30:21;11.93;;;4.80;;
6133;SDS011;3098;42.678;23.364;2023-03-31T04:32:55;15.18;;;5.53;;
6133;SDS011;3098;42.678;23.364;2023-03-31T04:35:24;17.65;;;6.22;;
6133;SDS011;3098;42.678;23.364;2023-03-31T04:38:04;11.50;;;5.57;;
6133;SDS011;3098;42.678;23.364;2023-03-31T04:40:30;12.00;;;6.15;;
6133;SDS011;3098;42.678;23.364;2023-03-31T04:42:59;12.57;;;5.63;;
6133;SDS011;3098;42.678;23.364;2023-03-31T04:45:26;9.05;;;4.95;;
6133;SDS011;3098;42.678;23.364;2023-03-31T04:47:53;14.27;;;5.63;;
6133;SDS011;3098;42.678;23.364;2023-03-31T04:50:21;11.30;;;5.28;;
6133;SDS011;3098;42.678;23.364;2023-03-31T04:52:48;7.78;;;4.30;;
6133;SDS011;3098;42.678;23.364;2023-03-31T04:55:16;11.50;;;4.63;;
6133;SDS011;3098;42.678;23.364;2023-03-31T04:57:43;10.88;;;5.18;;
6133;SDS011;3098;42.678;23.364;2023-03-31T05:00:11;8.35;;;3.85;;
6133;SDS011;3098;42.678;23.364;2023-03-31T05:02:38;9.40;;;4.50;;
6133;SDS011;3098;42.678;23.364;2023-03-31T05:05:06;10.27;;;5.30;;
6133;SDS011;3098;42.678;23.364;2023-03-31T05:07:34;13.52;;;4.65;;
6133;SDS011;3098;42.678;23.364;2023-03-31T05:10:01;11.90;;;4.22;;
6133;SDS011;3098;42.678;23.364;2023-03-31T05:12:30;9.98;;;5.07;;
6133;SDS011;3098;42.678;23.364;2023-03-31T05:15:00;10.82;;;5.15;;
6133;SDS011;3098;42.678;23.364;2023-03-31T05:17:30;8.70;;;4.75;;
6133;SDS011;3098;42.678;23.364;2023-03-31T05:19:58;9.30;;;4.93;;
6133;SDS011;3098;42.678;23.364;2023-03-31T05:22:25;11.70;;;4.82;;
6133;SDS011;3098;42.678;23.364;2023-03-31T05:24:52;7.65;;;4.20;;
6133;SDS011;3098;42.678;23.364;2023-03-31T05:27:20;7.72;;;4.10;;
6133;SDS011;3098;42.678;23.364;2023-03-31T05:29:48;11.40;;;4.90;;
6133;SDS011;3098;42.678;23.364;2023-03-31T05:32:15;10.85;;;5.18;;
6133;SDS011;3098;42.678;23.364;2023-03-31T05:34:42;12.88;;;4.63;;
6133;SDS011;3098;42.678;23.364;2023-03-31T05:37:10;12.50;;;5.53;;
6133;SDS011;3098;42.678;23.364;2023-03-31T05:39:37;14.60;;;5.72;;
6133;SDS011;3098;42.678;23.364;2023-03-31T05:42:04;13.75;;;6.03;;
6133;SDS011;3098;42.678;23.364;2023-03-31T05:44:31;12.85;;;5.05;;
6133;SDS011;3098;42.678;23.364;2023-03-31T05:47:00;12.32;;;5.85;;
6133;SDS011;3098;42.678;23.364;2023-03-31T05:49:28;17.10;;;5.75;;
6133;SDS011;3098;42.678;23.364;2023-03-31T05:51:55;10.68;;;5.80;;
6133;SDS011;3098;42.678;23.364;2023-03-31T05:54:23;19.25;;;5.65;;
6133;SDS011;3098;42.678;23.364;2023-03-31T05:56:50;18.67;;;6.00;;
6133;SDS011;3098;42.678;23.364;2023-03-31T05:59:17;19.45;;;6.32;;
6133;SDS011;3098;42.678;23.364;2023-03-31T06:01:44;12.70;;;6.03;;
6133;SDS011;3098;42.678;23.364;2023-03-31T06:04:12;12.05;;;5.63;;
6133;SDS011;3098;42.678;23.364;2023-03-31T06:06:39;25.95;;;9.10;;
6133;SDS011;3098;42.678;23.364;2023-03-31T06:09:07;17.58;;;8.40;;
6133;SDS011;3098;42.678;23.364;2023-03-31T06:11:36;14.00;;;7.45;;
6133;SDS011;3098;42.678;23.364;2023-03-31T06:14:03;19.13;;;8.45;;
6133;SDS011;3098;42.678;23.364;2023-03-31T06:16:31;17.02;;;6.45;;
6133;SDS011;3098;42.678;23.364;2023-03-31T06:18:58;15.75;;;5.57;;
6133;SDS011;3098;42.678;23.364;2023-03-31T06:21:27;9.68;;;5.35;;
6133;SDS011;3098;42.678;23.364;2023-03-31T06:23:54;18.17;;;8.55;;
6133;SDS011;3098;42.678;23.364;2023-03-31T06:26:22;18.33;;;5.68;;
6133;SDS011;3098;42.678;23.364;2023-03-31T06:28:50;9.23;;;4.28;;
6133;SDS011;3098;42.678;23.364;2023-03-31T06:31:18;10.80;;;5.07;;
6133;SDS011;3098;42.678;23.364;2023-03-31T06:33:46;10.77;;;4.55;;
6133;SDS011;3098;42.678;23.364;2023-03-31T06:36:14;12.63;;;4.85;;
6133;SDS011;3098;42.678;23.364;2023-03-31T06:38:44;13.00;;;4.43;;
6133;SDS011;3098;42.678;23.364;2023-03-31T06:41:12;9.40;;;3.78;;
6133;SDS011;3098;42.678;23.364;2023-03-31T06:43:41;6.82;;;3.83;;
6133;SDS011;3098;42.678;23.364;2023-03-31T06:46:08;9.95;;;4.43;;
6133;SDS011;3098;42.678;23.364;2023-03-31T06:48:36;9.68;;;3.75;;
6133;SDS011;3098;42.678;23.364;2023-03-31T06:51:07;14.30;;;5.40;;
6133;SDS011;3098;42.678;23.364;2023-03-31T06:53:35;17.63;;;4.85;;
6133;SDS011;3098;42.678;23.364;2023-03-31T06:56:04;15.20;;;5.68;;
6133;SDS011;3098;42.678;23.364;2023-03-31T06:58:32;14.75;;;4.35;;
6133;SDS011;3098;42.678;23.364;2023-03-31T07:01:00;14.18;;;4.78;;
6133;SDS011;3098;42.678;23.364;2023-03-31T07:03:28;16.38;;;5.18;;
6133;SDS011;3098;42.678;23.364;2023-03-31T07:05:57;10.73;;;5.00;;
6133;SDS011;3098;42.678;23.364;2023-03-31T07:08:24;9.88;;;4.93;;
6133;SDS011;3098;42.678;23.364;2023-03-31T07:10:53;11.65;;;4.70;;
6133;SDS011;3098;42.678;23.364;2023-03-31T07:13:24;9.13;;;4.28;;
6133;SDS011;3098;42.678;23.364;2023-03-31T07:15:52;12.40;;;4.45;;
6133;SDS011;3098;42.678;23.364;2023-03-31T07:18:20;13.50;;;4.82;;
6133;SDS011;3098;42.678;23.364;2023-03-31T07:20:50;12.57;;;4.18;;
6133;SDS011;3098;42.678;23.364;2023-03-31T07:23:20;11.18;;;4.43;;
6133;SDS011;3098;42.678;23.364;2023-03-31T07:25:48;7.45;;;4.60;;
6133;SDS011;3098;42.678;23.364;2023-03-31T07:28:15;9.48;;;4.47;;
6133;SDS011;3098;42.678;23.364;2023-03-31T07:30:44;13.52;;;5.35;;
6133;SDS011;3098;42.678;23.364;2023-03-31T07:33:11;7.32;;;4.30;;
6133;SDS011;3098;42.678;23.364;2023-03-31T07:35:39;12.07;;;4.45;;
6133;SDS011;3098;42.678;23.364;2023-03-31T07:38:07;7.90;;;4.07;;
6133;SDS011;3098;42.678;23.364;2023-03-31T07:40:35;10.52;;;4.70;;
6133;SDS011;3098;42.678;23.364;2023-03-31T07:43:02;10.18;;;4.07;;
6133;SDS011;3098;42.678;23.364;2023-03-31T07:45:35;11.68;;;5.40;;
6133;SDS011;3098;42.678;23.364;2023-03-31T07:48:06;4.78;;;3.20;;
6133;SDS011;3098;42.678;23.364;2023-03-31T07:50:33;10.82;;;3.90;;
6133;SDS011;3098;42.678;23.364;2023-03-31T07:53:01;11.02;;;4.40;;
6133;SDS011;3098;42.678;23.364;2023-03-31T07:55:28;6.25;;;3.17;;
6133;SDS011;3098;42.678;23.364;2023-03-31T07:57:55;4.88;;;3.30;;
6133;SDS011;3098;42.678;23.364;2023-03-31T08:00:22;7.65;;;3.30;;
6133;SDS011;3098;42.678;23.364;2023-03-31T08:02:49;8.38;;;3.53;;
6133;SDS011;3098;42.678;23.364;2023-03-31T08:05:18;7.25;;;3.55;;
6133;SDS011;3098;42.678;23.364;2023-03-31T08:07:47;6.00;;;3.22;;
6133;SDS011;3098;42.678;23.364;2023-03-31T08:10:16;9.55;;;3.70;;
6133;SDS011;3098;42.678;23.364;2023-03-31T08:12:45;7.22;;;3.35;;
6133;SDS011;3098;42.678;23.364;2023-03-31T08:15:14;7.93;;;3.33;;
6133;SDS011;3098;42.678;23.364;2023-03-31T08:17:42;7.55;;;3.35;;
6133;SDS011;3098;42.678;23.364;2023-03-31T08:20:09;7.25;;;2.88;;
6133;SDS011;3098;42.678;23.364;2023-03-31T08:22:38;4.53;;;2.65;;
6133;SDS011;3098;42.678;23.364;2023-03-31T08:25:07;15.18;;;3.00;;
6133;SDS011;3098;42.678;23.364;2023-03-31T08:27:35;9.00;;;3.05;;
6133;SDS011;3098;42.678;23.364;2023-03-31T08:30:04;7.28;;;2.65;;
6133;SDS011;3098;42.678;23.364;2023-03-31T08:32:34;7.80;;;2.97;;
6133;SDS011;3098;42.678;23.364;2023-03-31T08:35:02;5.72;;;2.35;;
6133;SDS011;3098;42.678;23.364;2023-03-31T08:37:30;10.75;;;2.60;;
6133;SDS011;3098;42.678;23.364;2023-03-31T08:39:59;3.40;;;2.22;;
6133;SDS011;3098;42.678;23.364;2023-03-31T08:42:31;5.28;;;2.30;;
6133;SDS011;3098;42.678;23.364;2023-03-31T08:45:04;7.95;;;2.80;;
6133;SDS011;3098;42.678;23.364;2023-03-31T08:47:37;5.80;;;2.67;;
6133;SDS011;3098;42.678;23.364;2023-03-31T08:50:06;9.68;;;2.28;;
6133;SDS011;3098;42.678;23.364;2023-03-31T08:52:40;4.07;;;2.22;;
6133;SDS011;3098;42.678;23.364;2023-03-31T08:55:12;7.32;;;2.97;;
6133;SDS011;3098;42.678;23.364;2023-03-31T08:57:50;4.43;;;2.22;;
6133;SDS011;3098;42.678;23.364;2023-03-31T09:00:24;6.93;;;2.15;;
6133;SDS011;3098;42.678;23.364;2023-03-31T09:02:53;6.90;;;2.53;;
6133;SDS011;3098;42.678;23.364;2023-03-31T09:05:36;7.25;;;1.95;;
6133;SDS011;3098;42.678;23.364;2023-03-31T09:08:12;4.25;;;2.20;;
6133;SDS011;3098;42.678;23.364;2023-03-31T09:10:50;5.50;;;2.30;;
6133;SDS011;3098;42.678;23.364;2023-03-31T09:13:35;5.38;;;2.13;;
6133;SDS011;3098;42.678;23.364;2023-03-31T09:16:13;3.65;;;2.15;;
6133;SDS011;3098;42.678;23.364;2023-03-31T09:18:41;3.80;;;2.13;;
6133;SDS011;3098;42.678;23.364;2023-03-31T09:21:11;5.35;;;2.03;;
6133;SDS011;3098;42.678;23.364;2023-03-31T09:23:46;8.35;;;2.25;;
6133;SDS011;3098;42.678;23.364;2023-03-31T09:26:21;5.55;;;2.40;;
6133;SDS011;3098;42.678;23.364;2023-03-31T09:28:52;6.75;;;2.25;;
6133;SDS011;3098;42.678;23.364;2023-03-31T09:31:23;10.80;;;2.58;;
6133;SDS011;3098;42.678;23.364;2023-03-31T09:33:52;8.73;;;2.63;;
6133;SDS011;3098;42.678;23.364;2023-03-31T09:36:23;6.13;;;2.05;;
6133;SDS011;3098;42.678;23.364;2023-03-31T09:38:50;7.07;;;2.13;;
6133;SDS011;3098;42.678;23.364;2023-03-31T09:41:18;5.22;;;2.45;;
6133;SDS011;3098;42.678;23.364;2023-03-31T09:43:47;5.93;;;2.20;;
6133;SDS011;3098;42.678;23.364;2023-03-31T09:46:18;5.43;;;2.22;;
6133;SDS011;3098;42.678;23.364;2023-03-31T09:48:52;7.97;;;2.42;;
6133;SDS011;3098;42.678;23.364;2023-03-31T09:51:25;6.00;;;2.22;;
6133;SDS011;3098;42.678;23.364;2023-03-31T09:53:57;13.20;;;2.17;;
6133;SDS011;3098;42.678;23.364;2023-03-31T09:56:34;6.05;;;2.17;;
6133;SDS011;3098;42.678;23.364;2023-03-31T09:59:15;4.13;;;2.10;;
6133;SDS011;3098;42.678;23.364;2023-03-31T10:01:43;4.80;;;2.00;;
6133;SDS011;3098;42.678;23.364;2023-03-31T10:04:20;2.45;;;1.63;;
6133;SDS011;3098;42.678;23.364;2023-03-31T10:06:48;6.57;;;2.45;;
6133;SDS011;3098;42.678;23.364;2023-03-31T10:09:18;6.85;;;2.13;;
6133;SDS011;3098;42.678;23.364;2023-03-31T10:11:51;4.15;;;1.70;;
6133;SDS011;3098;42.678;23.364;2023-03-31T10:14:26;3.15;;;1.88;;
6133;SDS011;3098;42.678;23.364;2023-03-31T10:17:00;6.28;;;1.85;;
6133;SDS011;3098;42.678;23.364;2023-03-31T10:19:31;8.15;;;1.85;;
6133;SDS011;3098;42.678;23.364;2023-03-31T10:22:01;4.22;;;1.90;;
6133;SDS011;3098;42.678;23.364;2023-03-31T10:24:37;3.58;;;1.90;;
6133;SDS011;3098;42.678;23.364;2023-03-31T10:27:05;5.28;;;2.70;;
6133;SDS011;3098;42.678;23.364;2023-03-31T10:29:41;1.83;;;1.58;;
6133;SDS011;3098;42.678;23.364;2023-03-31T10:32:08;3.42;;;2.05;;
6133;SDS011;3098;42.678;23.364;2023-03-31T10:34:40;3.50;;;2.00;;
6133;SDS011;3098;42.678;23.364;2023-03-31T10:37:09;4.38;;;2.17;;
6133;SDS011;3098;42.678;23.364;2023-03-31T10:39:43;3.20;;;1.95;;
6133;SDS011;3098;42.678;23.364;2023-03-31T10:42:17;3.17;;;1.85;;
6133;SDS011;3098;42.678;23.364;2023-03-31T10:44:48;6.65;;;1.63;;
6133;SDS011;3098;42.678;23.364;2023-03-31T10:47:17;5.53;;;2.63;;
6133;SDS011;3098;42.678;23.364;2023-03-31T10:49:50;3.55;;;1.98;;
6133;SDS011;3098;42.678;23.364;2023-03-31T10:52:23;7.20;;;1.95;;
6133;SDS011;3098;42.678;23.364;2023-03-31T10:54:52;3.45;;;2.00;;
6133;SDS011;3098;42.678;23.364;2023-03-31T10:57:26;3.90;;;2.03;;
6133;SDS011;3098;42.678;23.364;2023-03-31T11:00:08;9.50;;;1.90;;
6133;SDS011;3098;42.678;23.364;2023-03-31T11:02:57;8.77;;;2.50;;
6133;SDS011;3098;42.678;23.364;2023-03-31T11:05:38;5.38;;;1.90;;
6133;SDS011;3098;42.678;23.364;2023-03-31T11:08:28;7.25;;;2.42;;
6133;SDS011;3098;42.678;23.364;2023-03-31T11:11:18;6.00;;;2.30;;
6133;SDS011;3098;42.678;23.364;2023-03-31T11:13:58;4.15;;;2.55;;
6133;SDS011;3098;42.678;23.364;2023-03-31T11:16:40;3.05;;;1.83;;
6133;SDS011;3098;42.678;23.364;2023-03-31T11:19:18;8.50;;;2.88;;
6133;SDS011;3098;42.678;23.364;2023-03-31T11:22:00;4.60;;;2.35;;
6133;SDS011;3098;42.678;23.364;2023-03-31T11:24:45;3.60;;;2.03;;
6133;SDS011;3098;42.678;23.364;2023-03-31T11:27:38;11.35;;;2.33;;
6133;SDS011;3098;42.678;23.364;2023-03-31T11:30:23;9.98;;;2.22;;
6133;SDS011;3098;42.678;23.364;2023-03-31T11:33:04;4.22;;;2.10;;
6133;SDS011;3098;42.678;23.364;2023-03-31T11:35:57;4.70;;;1.60;;
6133;SDS011;3098;42.678;23.364;2023-03-31T11:38:50;4.32;;;1.73;;
6133;SDS011;3098;42.678;23.364;2023-03-31T11:41:36;2.33;;;1.80;;
6133;SDS011;3098;42.678;23.364;2023-03-31T11:44:15;4.43;;;1.80;;
6133;SDS011;3098;42.678;23.364;2023-03-31T11:46:47;6.55;;;2.30;;
6133;SDS011;3098;42.678;23.364;2023-03-31T11:49:19;3.80;;;1.90;;
6133;SDS011;3098;42.678;23.364;2023-03-31T11:51:57;5.22;;;2.50;;
6133;SDS011;3098;42.678;23.364;2023-03-31T11:54:36;5.35;;;2.22;;
6133;SDS011;3098;42.678;23.364;2023-03-31T11:57:09;5.43;;;2.05;;
6133;SDS011;3098;42.678;23.364;2023-03-31T11:59:42;7.57;;;2.20;;
6133;SDS011;3098;42.678;23.364;2023-03-31T12:02:14;8.38;;;2.03;;
6133;SDS011;3098;42.678;23.364;2023-03-31T12:04:45;4.78;;;2.30;;
6133;SDS011;3098;42.678;23.364;2023-03-31T12:07:19;8.57;;;2.15;;
6133;SDS011;3098;42.678;23.364;2023-03-31T12:09:51;4.82;;;2.17;;
6133;SDS011;3098;42.678;23.364;2023-03-31T12:12:29;2.45;;;1.55;;
6133;SDS011;3098;42.678;23.364;2023-03-31T12:15:02;2.92;;;2.13;;
6133;SDS011;3098;42.678;23.364;2023-03-31T12:17:38;9.23;;;1.95;;
6133;SDS011;3098;42.678;23.364;2023-03-31T12:20:13;4.38;;;1.77;;
6133;SDS011;3098;42.678;23.364;2023-03-31T12:22:46;5.93;;;2.03;;
6133;SDS011;3098;42.678;23.364;2023-03-31T12:25:15;4.75;;;2.05;;
6133;SDS011;3098;42.678;23.364;2023-03-31T12:27:47;3.80;;;1.77;;
6133;SDS011;3098;42.678;23.364;2023-03-31T12:30:16;3.03;;;1.50;;
6133;SDS011;3098;42.678;23.364;2023-03-31T12:32:51;8.60;;;2.13;;
6133;SDS011;3098;42.678;23.364;2023-03-31T12:35:23;3.08;;;1.90;;
6133;SDS011;3098;42.678;23.364;2023-03-31T12:38:06;6.03;;;2.45;;
6133;SDS011;3098;42.678;23.364;2023-03-31T12:40:45;2.85;;;1.95;;
6133;SDS011;3098;42.678;23.364;2023-03-31T12:43:33;7.00;;;2.20;;
6133;SDS011;3098;42.678;23.364;2023-03-31T12:46:18;6.18;;;1.92;;
6133;SDS011;3098;42.678;23.364;2023-03-31T12:48:57;1.80;;;1.45;;
6133;SDS011;3098;42.678;23.364;2023-03-31T12:51:40;5.50;;;1.83;;
6133;SDS011;3098;42.678;23.364;2023-03-31T12:54:29;4.05;;;1.75;;
6133;SDS011;3098;42.678;23.364;2023-03-31T12:57:13;1.42;;;1.27;;
6133;SDS011;3098;42.678;23.364;2023-03-31T12:59:44;5.78;;;1.90;;
6133;SDS011;3098;42.678;23.364;2023-03-31T13:02:32;5.35;;;2.35;;
6133;SDS011;3098;42.678;23.364;2023-03-31T13:04:59;5.13;;;1.67;;
6133;SDS011;3098;42.678;23.364;2023-03-31T13:08:06;3.72;;;1.90;;
6133;SDS011;3098;42.678;23.364;2023-03-31T13:10:49;2.58;;;1.55;;
6133;SDS011;3098;42.678;23.364;2023-03-31T13:13:21;6.18;;;2.35;;
6133;SDS011;3098;42.678;23.364;2023-03-31T13:15:49;7.22;;;1.88;;
6133;SDS011;3098;42.678;23.364;2023-03-31T13:18:19;1.55;;;1.45;;
6133;SDS011;3098;42.678;23.364;2023-03-31T13:20:55;7.20;;;2.38;;
6133;SDS011;3098;42.678;23.364;2023-03-31T13:23:25;2.60;;;1.70;;
6133;SDS011;3098;42.678;23.364;2023-03-31T13:25:56;6.93;;;2.33;;
6133;SDS011;3098;42.678;23.364;2023-03-31T13:28:36;4.07;;;1.88;;
6133;SDS011;3098;42.678;23.364;2023-03-31T13:31:06;2.53;;;1.70;;
6133;SDS011;3098;42.678;23.364;2023-03-31T13:33:44;4.10;;;2.53;;
6133;SDS011;3098;42.678;23.364;2023-03-31T13:39:26;4.65;;;1.73;;
6133;SDS011;3098;42.678;23.364;2023-03-31T13:42:05;12.23;;;1.95;;
6133;SDS011;3098;42.678;23.364;2023-03-31T13:44:51;5.85;;;2.17;;
6133;SDS011;3098;42.678;23.364;2023-03-31T13:47:47;4.22;;;1.77;;
6133;SDS011;3098;42.678;23.364;2023-03-31T13:50:36;5.85;;;1.98;;
6133;SDS011;3098;42.678;23.364;2023-03-31T13:53:15;6.13;;;1.95;;
6133;SDS011;3098;42.678;23.364;2023-03-31T14:05:24;9.43;;;2.10;;
6133;SDS011;3098;42.678;23.364;2023-03-31T14:07:57;3.13;;;1.77;;
6133;SDS011;3098;42.678;23.364;2023-03-31T14:10:28;5.97;;;2.00;;
6133;SDS011;3098;42.678;23.364;2023-03-31T14:13:06;8.55;;;2.55;;
6133;SDS011;3098;42.678;23.364;2023-03-31T14:15:36;8.10;;;2.03;;
6133;SDS011;3098;42.678;23.364;2023-03-31T14:18:05;7.82;;;2.15;;
6133;SDS011;3098;42.678;23.364;2023-03-31T14:20:38;4.75;;;2.00;;
6133;SDS011;3098;42.678;23.364;2023-03-31T14:23:13;3.75;;;1.92;;
6133;SDS011;3098;42.678;23.364;2023-03-31T14:25:49;6.90;;;2.30;;
6133;SDS011;3098;42.678;23.364;2023-03-31T14:31:32;8.68;;;2.05;;
6133;SDS011;3098;42.678;23.364;2023-03-31T14:34:11;8.60;;;2.60;;
6133;SDS011;3098;42.678;23.364;2023-03-31T14:36:52;9.70;;;2.40;;
6133;SDS011;3098;42.678;23.364;2023-03-31T14:39:25;5.72;;;2.17;;
6133;SDS011;3098;42.678;23.364;2023-03-31T14:41:55;4.70;;;1.98;;
6133;SDS011;3098;42.678;23.364;2023-03-31T14:44:27;5.15;;;2.55;;
6133;SDS011;3098;42.678;23.364;2023-03-31T14:46:55;3.78;;;2.17;;
6133;SDS011;3098;42.678;23.364;2023-03-31T14:49:24;7.65;;;1.63;;
6133;SDS011;3098;42.678;23.364;2023-03-31T14:51:52;6.25;;;1.88;;
6133;SDS011;3098;42.678;23.364;2023-03-31T14:54:24;3.15;;;2.00;;
6133;SDS011;3098;42.678;23.364;2023-03-31T14:56:52;8.38;;;2.25;;
6133;SDS011;3098;42.678;23.364;2023-03-31T14:59:21;4.22;;;2.13;;
6133;SDS011;3098;42.678;23.364;2023-03-31T15:01:53;5.15;;;1.92;;
6133;SDS011;3098;42.678;23.364;2023-03-31T15:04:24;9.43;;;2.17;;
6133;SDS011;3098;42.678;23.364;2023-03-31T15:06:54;7.35;;;2.10;;
6133;SDS011;3098;42.678;23.364;2023-03-31T15:09:26;4.90;;;1.80;;
6133;SDS011;3098;42.678;23.364;2023-03-31T15:11:55;5.30;;;1.70;;
6133;SDS011;3098;42.678;23.364;2023-03-31T15:14:27;7.28;;;2.08;;
6133;SDS011;3098;42.678;23.364;2023-03-31T15:16:57;5.20;;;1.60;;
6133;SDS011;3098;42.678;23.364;2023-03-31T15:19:25;8.13;;;2.67;;
6133;SDS011;3098;42.678;23.364;2023-03-31T15:21:55;8.20;;;2.42;;
6133;SDS011;3098;42.678;23.364;2023-03-31T15:24:26;10.57;;;2.67;;
6133;SDS011;3098;42.678;23.364;2023-03-31T15:26:54;5.82;;;2.22;;
6133;SDS011;3098;42.678;23.364;2023-03-31T15:29:28;4.30;;;1.90;;
6133;SDS011;3098;42.678;23.364;2023-03-31T15:32:02;6.43;;;1.75;;
6133;SDS011;3098;42.678;23.364;2023-03-31T15:34:33;7.22;;;2.58;;
6133;SDS011;3098;42.678;23.364;2023-03-31T15:37:01;4.18;;;2.28;;
6133;SDS011;3098;42.678;23.364;2023-03-31T15:39:29;8.75;;;2.55;;
6133;SDS011;3098;42.678;23.364;2023-03-31T15:41:59;7.43;;;2.30;;
6133;SDS011;3098;42.678;23.364;2023-03-31T15:44:34;7.55;;;2.67;;
6133;SDS011;3098;42.678;23.364;2023-03-31T15:49:53;6.68;;;2.03;;
6133;SDS011;3098;42.678;23.364;2023-03-31T15:52:28;8.15;;;2.10;;
6133;SDS011;3098;42.678;23.364;2023-03-31T15:54:58;7.70;;;1.98;;
6133;SDS011;3098;42.678;23.364;2023-03-31T15:57:31;7.20;;;2.20;;
6133;SDS011;3098;42.678;23.364;2023-03-31T15:59:59;3.97;;;1.73;;
6133;SDS011;3098;42.678;23.364;2023-03-31T16:02:37;9.43;;;2.28;;